createdAt,value
2023-05-19T00:01:21.205Z,4.00
2023-05-19T00:06:33.219Z,3.63
2023-05-19T00:11:36.744Z,4.05
2023-05-19T00:16:39.046Z,3.95
2023-05-19T00:21:40.670Z,4.03
2023-05-19T00:26:42.235Z,4.22
2023-05-19T00:31:43.965Z,4.30
2023-05-19T00:36:45.546Z,3.92
2023-05-19T00:41:47.367Z,4.10
2023-05-19T00:46:49.002Z,4.15
2023-05-19T00:51:50.673Z,3.75
2023-05-19T00:56:53.203Z,3.88
2023-05-19T01:01:54.928Z,3.97
2023-05-19T01:06:56.873Z,4.22
2023-05-19T01:11:59.349Z,4.07
2023-05-19T01:17:09.985Z,4.00
2023-05-19T01:22:31.030Z,4.15
2023-05-19T01:27:41.378Z,4.00
2023-05-19T01:32:45.555Z,4.85
2023-05-19T01:37:47.634Z,3.90
2023-05-19T01:42:50.491Z,4.13
2023-05-19T01:47:55.661Z,3.78
2023-05-19T01:52:57.977Z,3.45
2023-05-19T01:58:14.693Z,3.10
2023-05-19T02:03:38.574Z,3.92
2023-05-19T02:09:02.184Z,3.45
2023-05-19T02:14:20.405Z,3.70
2023-05-19T02:19:29.492Z,3.47
2023-05-19T02:24:31.269Z,3.42
2023-05-19T02:29:32.909Z,3.80
2023-05-19T02:34:34.479Z,3.60
2023-05-19T02:39:36.101Z,4.00
2023-05-19T02:44:37.835Z,3.63
2023-05-19T02:49:39.899Z,3.67
2023-05-19T02:54:41.592Z,3.22
2023-05-19T02:59:43.268Z,3.53
2023-05-19T03:04:45.655Z,3.00
2023-05-19T03:09:47.331Z,3.22
2023-05-19T03:14:48.966Z,3.72
2023-05-19T03:19:51.262Z,3.10
2023-05-19T03:24:54.321Z,3.75
2023-05-19T03:29:55.957Z,3.90
2023-05-19T03:34:57.731Z,3.72
2023-05-19T03:39:59.842Z,3.40
2023-05-19T03:45:01.463Z,3.33
2023-05-19T03:50:03.201Z,3.50
2023-05-19T03:55:05.549Z,3.95
2023-05-19T04:00:08.320Z,4.15
2023-05-19T04:05:10.850Z,3.58
2023-05-19T04:10:13.546Z,4.32
2023-05-19T04:15:15.823Z,4.97
2023-05-19T04:20:17.428Z,3.70
2023-05-19T04:25:20.196Z,3.53
2023-05-19T04:30:22.691Z,3.78
2023-05-19T04:35:24.775Z,3.80
2023-05-19T04:40:26.343Z,3.80
2023-05-19T04:45:28.202Z,3.60
2023-05-19T04:50:31.154Z,3.95
2023-05-19T04:55:33.032Z,4.07
2023-05-19T05:00:35.951Z,4.30
2023-05-19T05:05:37.684Z,4.38
2023-05-19T05:10:39.273Z,4.18
2023-05-19T05:15:41.094Z,4.00
2023-05-19T05:20:43.643Z,4.53
2023-05-19T05:25:47.434Z,4.00
2023-05-19T05:30:49.380Z,4.57
2023-05-19T05:35:51.137Z,4.88
2023-05-19T05:40:52.751Z,4.65
2023-05-19T05:45:54.340Z,5.40
2023-05-19T05:50:57.955Z,6.05
2023-05-19T05:55:59.990Z,5.10
2023-05-19T06:01:02.743Z,4.80
2023-05-19T06:06:04.776Z,5.13
2023-05-19T06:11:08.917Z,3.90
2023-05-19T06:16:10.768Z,3.67
2023-05-19T06:21:13.437Z,4.22
2023-05-19T06:26:15.437Z,3.85
2023-05-19T06:31:17.086Z,3.80
2023-05-19T06:36:18.791Z,4.20
2023-05-19T06:41:21.690Z,3.88
2023-05-19T06:46:23.298Z,3.75
2023-05-19T06:51:24.968Z,5.05
2023-05-19T06:56:26.634Z,4.50
2023-05-19T07:01:30.351Z,4.53
2023-05-19T07:06:32.034Z,4.60
2023-05-19T07:11:33.592Z,4.53
2023-05-19T07:16:35.177Z,4.28
2023-05-19T07:21:36.798Z,4.90
2023-05-19T07:26:39.800Z,4.82
2023-05-19T07:31:42.797Z,5.15
2023-05-19T07:36:44.424Z,4.00
2023-05-19T07:41:52.625Z,4.80
2023-05-19T07:46:54.893Z,4.65
2023-05-19T07:51:57.075Z,4.65
2023-05-19T07:56:59.752Z,4.70
2023-05-19T08:02:01.510Z,4.55
2023-05-19T08:07:03.968Z,5.22
2023-05-19T08:12:05.968Z,4.78
2023-05-19T08:17:07.700Z,4.32
2023-05-19T08:22:09.345Z,5.00
2023-05-19T08:27:10.932Z,4.18
2023-05-19T08:32:13.492Z,4.60
2023-05-19T08:37:15.594Z,4.50
2023-05-19T08:42:17.269Z,4.07
2023-05-19T08:47:19.873Z,4.40
2023-05-19T08:52:42.011Z,3.38
2023-05-19T08:57:43.972Z,4.53
2023-05-19T09:02:59.656Z,3.90
2023-05-19T09:08:07.901Z,3.75
2023-05-19T09:13:09.620Z,3.95
2023-05-19T09:18:13.108Z,4.50
2023-05-19T09:23:16.811Z,3.45
2023-05-19T09:28:26.120Z,3.63
2023-05-19T09:33:28.696Z,4.47
2023-05-19T09:38:30.387Z,3.72
2023-05-19T09:43:36.639Z,3.70
2023-05-19T09:48:38.342Z,3.17
2023-05-19T09:53:39.963Z,3.97
2023-05-19T09:58:45.668Z,4.60
2023-05-19T10:03:47.515Z,4.40
2023-05-19T10:08:50.357Z,3.15
2023-05-19T10:13:52.296Z,3.35
2023-05-19T10:18:57.398Z,3.33
2023-05-19T10:23:59.044Z,3.03
2023-05-19T10:29:01.964Z,4.68
2023-05-19T10:34:22.330Z,3.35
2023-05-19T10:39:30.049Z,3.10
2023-05-19T10:45:05.258Z,3.33
2023-05-19T10:50:07.856Z,3.37
2023-05-19T10:55:17.817Z,3.63
2023-05-19T11:00:31.316Z,3.60
2023-05-19T11:05:36.811Z,3.13
2023-05-19T11:10:39.256Z,3.35
2023-05-19T11:15:42.954Z,3.00
2023-05-19T11:20:55.541Z,3.03
2023-05-19T11:25:57.475Z,3.22
2023-05-19T11:31:01.286Z,3.22
2023-05-19T11:36:03.106Z,2.42
2023-05-19T11:41:05.070Z,2.85
2023-05-19T11:46:06.791Z,2.45
2023-05-19T11:51:08.466Z,2.40
2023-05-19T11:56:11.772Z,2.50
2023-05-19T12:01:13.772Z,2.30
2023-05-19T12:06:17.448Z,2.30
2023-05-19T12:11:20.131Z,2.17
2023-05-19T12:16:22.310Z,2.10
2023-05-19T12:21:24.079Z,2.08
2023-05-19T12:26:37.360Z,1.83
2023-05-19T12:31:39.717Z,2.03
2023-05-19T12:36:41.635Z,2.22
2023-05-19T12:41:45.570Z,2.38
2023-05-19T12:46:51.927Z,2.30
2023-05-19T12:51:54.123Z,1.70
2023-05-19T12:56:57.755Z,2.03
2023-05-19T13:01:59.536Z,2.13
2023-05-19T13:07:01.818Z,2.00
2023-05-19T13:12:04.767Z,1.70
2023-05-19T13:17:06.503Z,2.00
2023-05-19T13:22:08.281Z,2.08
2023-05-19T13:27:10.014Z,1.92
2023-05-19T13:32:11.603Z,2.20
2023-05-19T13:37:13.265Z,1.70
2023-05-19T13:42:14.980Z,1.80
2023-05-19T13:47:16.858Z,1.73
2023-05-19T13:52:20.729Z,1.83
2023-05-19T13:57:28.319Z,1.67
2023-05-19T14:02:30.475Z,2.05
2023-05-19T14:07:34.769Z,1.65
2023-05-19T14:12:47.822Z,2.05
2023-05-19T14:17:53.780Z,1.80
2023-05-19T14:22:56.555Z,1.77
2023-05-19T14:27:58.207Z,2.00
2023-05-19T14:32:59.963Z,1.85
2023-05-19T14:38:01.660Z,1.80
2023-05-19T14:43:03.387Z,1.80
2023-05-19T14:48:05.600Z,1.83
2023-05-19T14:53:07.428Z,1.95
2023-05-19T14:58:23.715Z,2.15
2023-05-19T15:03:29.715Z,1.70
2023-05-19T15:08:31.443Z,1.98
2023-05-19T15:13:33.020Z,2.20
2023-05-19T15:18:34.629Z,1.92
2023-05-19T15:23:36.537Z,1.88
2023-05-19T15:28:38.095Z,2.30
2023-05-19T15:33:39.735Z,1.92
2023-05-19T15:38:41.281Z,2.10
2023-05-19T15:43:42.938Z,2.20
2023-05-19T15:48:44.548Z,2.30
2023-05-19T15:53:46.168Z,2.00
2023-05-19T15:58:47.889Z,2.40
2023-05-19T16:03:49.535Z,2.40
2023-05-19T16:08:51.147Z,2.17
2023-05-19T16:13:52.858Z,2.42
2023-05-19T16:18:54.482Z,2.03
2023-05-19T16:23:56.029Z,2.20
2023-05-19T16:28:57.595Z,2.20
2023-05-19T16:33:59.225Z,2.50
2023-05-19T16:39:00.902Z,1.95
2023-05-19T16:44:02.519Z,2.20
2023-05-19T16:49:04.145Z,2.47
2023-05-19T16:54:05.785Z,2.65
2023-05-19T16:59:09.244Z,2.60
2023-05-19T17:04:10.832Z,2.22
2023-05-19T17:09:12.772Z,2.30
2023-05-19T17:14:14.490Z,2.35
2023-05-19T17:19:16.383Z,2.60
2023-05-19T17:24:17.991Z,2.28
2023-05-19T17:29:19.555Z,2.70
2023-05-19T17:34:21.303Z,2.85
2023-05-19T17:39:22.950Z,2.42
2023-05-19T17:44:24.782Z,2.60
2023-05-19T17:49:26.465Z,2.83
2023-05-19T17:54:28.337Z,2.65
2023-05-19T17:59:30.668Z,2.38
2023-05-19T18:04:32.985Z,2.50
2023-05-19T18:09:38.614Z,3.03
2023-05-19T18:14:40.497Z,2.90
2023-05-19T18:19:42.516Z,2.80
2023-05-19T18:24:44.676Z,3.00
2023-05-19T18:29:47.002Z,3.15
2023-05-19T18:34:49.339Z,2.70
2023-05-19T18:39:51.637Z,2.97
2023-05-19T18:44:53.918Z,2.50
2023-05-19T18:49:56.330Z,2.97
2023-05-19T18:55:00.196Z,2.70
2023-05-19T19:00:02.732Z,2.72
2023-05-19T19:05:09.927Z,2.75
2023-05-19T19:10:12.448Z,2.45
2023-05-19T19:15:14.794Z,2.85
2023-05-19T19:20:17.224Z,2.90
2023-05-19T19:25:21.223Z,2.95
2023-05-19T19:30:26.041Z,3.67
2023-05-19T19:35:28.346Z,3.70
2023-05-19T19:40:31.002Z,4.65
2023-05-19T19:45:35.302Z,3.80
2023-05-19T19:50:37.707Z,2.95
2023-05-19T19:55:41.074Z,3.10
2023-05-19T20:00:43.379Z,3.35
2023-05-19T20:05:45.790Z,3.40
2023-05-19T20:10:49.844Z,3.30
2023-05-19T20:15:52.139Z,2.88
2023-05-19T20:20:54.472Z,2.78
2023-05-19T20:26:10.707Z,3.00
2023-05-19T20:31:15.175Z,3.00
2023-05-19T20:36:17.417Z,3.25
2023-05-19T20:41:19.957Z,2.92
2023-05-19T20:46:22.545Z,3.30
2023-05-19T20:51:25.761Z,3.13
2023-05-19T20:56:27.746Z,3.20
2023-05-19T21:01:30.047Z,3.30
2023-05-19T21:06:31.839Z,2.97
2023-05-19T21:11:34.245Z,3.22
2023-05-19T21:16:38.841Z,3.05
2023-05-19T21:21:42.852Z,3.25
2023-05-19T21:26:44.459Z,3.08
2023-05-19T21:31:46.074Z,3.35
2023-05-19T21:36:48.181Z,3.50
2023-05-19T21:41:51.484Z,3.38
2023-05-19T21:46:53.200Z,3.65
2023-05-19T21:51:54.934Z,3.90
2023-05-19T21:56:56.596Z,3.67
2023-05-19T22:01:58.656Z,3.42
2023-05-19T22:07:00.561Z,3.80
2023-05-19T22:18:27.615Z,3.70
2023-05-19T22:23:29.159Z,3.78
2023-05-19T22:28:30.674Z,4.05
2023-05-19T22:33:33.217Z,3.90
2023-05-19T22:38:34.689Z,4.28
2023-05-19T22:43:36.170Z,3.92
2023-05-19T22:48:37.680Z,4.30
2023-05-19T22:53:39.309Z,3.90
2023-05-19T22:58:40.848Z,3.95
2023-05-19T23:03:43.220Z,4.53
2023-05-19T23:08:46.882Z,4.18
2023-05-19T23:13:48.366Z,4.40
2023-05-19T23:18:49.938Z,4.10
2023-05-19T23:23:51.555Z,4.30
2023-05-19T23:28:53.073Z,3.47
2023-05-19T23:33:54.587Z,3.40
2023-05-19T23:38:56.130Z,3.50
2023-05-19T23:43:57.711Z,3.20
2023-05-19T23:48:59.249Z,3.72
2023-05-19T23:54:00.847Z,3.60
2023-05-19T23:59:02.366Z,3.72
